sensor_id;sensor_type;location;lat;lon;timestamp;temperature;humidity
30572;DHT22;17348;50.948;10.696;2023-07-30T00:00:08;17.90;99.90
30572;DHT22;17348;50.948;10.696;2023-07-30T00:03:11;18.00;99.90
30572;DHT22;17348;50.948;10.696;2023-07-30T00:06:15;18.00;99.90
30572;DHT22;17348;50.948;10.696;2023-07-30T00:09:17;18.00;99.90
30572;DHT22;17348;50.948;10.696;2023-07-30T00:12:19;18.00;99.90
30572;DHT22;17348;50.948;10.696;2023-07-30T00:15:22;18.00;99.90
30572;DHT22;17348;50.948;10.696;2023-07-30T00:18:24;18.00;99.90
30572;DHT22;17348;50.948;10.696;2023-07-30T00:21:28;18.10;99.90
30572;DHT22;17348;50.948;10.696;2023-07-30T00:24:30;18.00;99.90
30572;DHT22;17348;50.948;10.696;2023-07-30T00:27:33;18.10;99.90
30572;DHT22;17348;50.948;10.696;2023-07-30T00:30:35;18.10;99.90
30572;DHT22;17348;50.948;10.696;2023-07-30T00:33:37;18.10;99.90
30572;DHT22;17348;50.948;10.696;2023-07-30T00:36:41;18.10;99.90
30572;DHT22;17348;50.948;10.696;2023-07-30T00:39:43;18.10;99.90
30572;DHT22;17348;50.948;10.696;2023-07-30T00:42:46;18.20;99.90
30572;DHT22;17348;50.948;10.696;2023-07-30T00:45:49;18.10;99.90
30572;DHT22;17348;50.948;10.696;2023-07-30T00:48:51;18.20;99.90
30572;DHT22;17348;50.948;10.696;2023-07-30T00:51:55;18.20;99.90
30572;DHT22;17348;50.948;10.696;2023-07-30T00:54:59;18.20;99.90
30572;DHT22;17348;50.948;10.696;2023-07-30T00:58:04;18.20;99.90
30572;DHT22;17348;50.948;10.696;2023-07-30T01:01:08;18.20;99.90
30572;DHT22;17348;50.948;10.696;2023-07-30T01:04:10;18.20;99.90
30572;DHT22;17348;50.948;10.696;2023-07-30T01:07:14;18.20;99.90
30572;DHT22;17348;50.948;10.696;2023-07-30T01:10:16;18.20;99.90
30572;DHT22;17348;50.948;10.696;2023-07-30T01:13:19;18.10;99.90
30572;DHT22;17348;50.948;10.696;2023-07-30T01:16:21;18.10;99.90
30572;DHT22;17348;50.948;10.696;2023-07-30T01:19:24;18.10;99.90
30572;DHT22;17348;50.948;10.696;2023-07-30T01:22:28;18.10;99.90
30572;DHT22;17348;50.948;10.696;2023-07-30T01:25:35;18.20;99.90
30572;DHT22;17348;50.948;10.696;2023-07-30T01:28:44;18.20;99.90
30572;DHT22;17348;50.948;10.696;2023-07-30T01:31:53;18.20;99.90
30572;DHT22;17348;50.948;10.696;2023-07-30T01:34:58;18.20;99.90
30572;DHT22;17348;50.948;10.696;2023-07-30T01:38:03;18.20;99.90
30572;DHT22;17348;50.948;10.696;2023-07-30T01:41:06;18.20;99.90
30572;DHT22;17348;50.948;10.696;2023-07-30T01:44:08;18.20;99.90
30572;DHT22;17348;50.948;10.696;2023-07-30T01:47:11;18.10;99.90
30572;DHT22;17348;50.948;10.696;2023-07-30T01:50:13;18.20;99.90
30572;DHT22;17348;50.948;10.696;2023-07-30T01:53:17;18.10;99.90
30572;DHT22;17348;50.948;10.696;2023-07-30T01:56:19;18.10;99.90
30572;DHT22;17348;50.948;10.696;2023-07-30T01:59:21;18.10;99.90
30572;DHT22;17348;50.948;10.696;2023-07-30T02:02:24;18.00;99.90
30572;DHT22;17348;50.948;10.696;2023-07-30T02:05:26;18.00;99.90
30572;DHT22;17348;50.948;10.696;2023-07-30T02:08:30;18.00;99.90
30572;DHT22;17348;50.948;10.696;2023-07-30T02:11:32;17.90;99.90
30572;DHT22;17348;50.948;10.696;2023-07-30T02:14:34;17.90;99.90
30572;DHT22;17348;50.948;10.696;2023-07-30T02:17:37;17.90;99.90
30572;DHT22;17348;50.948;10.696;2023-07-30T02:20:39;17.90;99.90
30572;DHT22;17348;50.948;10.696;2023-07-30T02:23:44;17.80;99.90
30572;DHT22;17348;50.948;10.696;2023-07-30T02:26:46;17.80;99.90
30572;DHT22;17348;50.948;10.696;2023-07-30T02:29:49;17.70;99.90
30572;DHT22;17348;50.948;10.696;2023-07-30T02:32:51;17.70;99.90
30572;DHT22;17348;50.948;10.696;2023-07-30T02:35:54;17.60;99.90
30572;DHT22;17348;50.948;10.696;2023-07-30T02:38:57;17.50;99.90
30572;DHT22;17348;50.948;10.696;2023-07-30T02:42:00;17.50;99.90
30572;DHT22;17348;50.948;10.696;2023-07-30T02:45:03;17.40;99.90
30572;DHT22;17348;50.948;10.696;2023-07-30T02:48:06;17.30;99.90
30572;DHT22;17348;50.948;10.696;2023-07-30T02:51:08;17.30;99.90
30572;DHT22;17348;50.948;10.696;2023-07-30T02:54:12;17.30;99.90
30572;DHT22;17348;50.948;10.696;2023-07-30T02:57:15;17.20;99.90
30572;DHT22;17348;50.948;10.696;2023-07-30T03:00:18;17.10;99.90
30572;DHT22;17348;50.948;10.696;2023-07-30T03:03:20;17.10;99.90
30572;DHT22;17348;50.948;10.696;2023-07-30T03:06:22;17.10;99.90
30572;DHT22;17348;50.948;10.696;2023-07-30T03:09:26;17.10;99.90
30572;DHT22;17348;50.948;10.696;2023-07-30T03:12:29;17.10;99.90
30572;DHT22;17348;50.948;10.696;2023-07-30T03:15:31;17.10;99.90
30572;DHT22;17348;50.948;10.696;2023-07-30T03:18:33;17.00;99.90
30572;DHT22;17348;50.948;10.696;2023-07-30T03:21:36;17.00;99.90
30572;DHT22;17348;50.948;10.696;2023-07-30T03:24:39;17.00;99.90
30572;DHT22;17348;50.948;10.696;2023-07-30T03:27:42;17.00;99.90
30572;DHT22;17348;50.948;10.696;2023-07-30T03:30:44;16.90;99.90
30572;DHT22;17348;50.948;10.696;2023-07-30T03:33:46;16.90;99.90
30572;DHT22;17348;50.948;10.696;2023-07-30T03:36:49;16.90;99.90
30572;DHT22;17348;50.948;10.696;2023-07-30T03:39:52;16.80;99.90
30572;DHT22;17348;50.948;10.696;2023-07-30T03:42:55;16.90;99.90
30572;DHT22;17348;50.948;10.696;2023-07-30T03:45:57;16.90;99.90
30572;DHT22;17348;50.948;10.696;2023-07-30T03:48:59;16.90;99.90
30572;DHT22;17348;50.948;10.696;2023-07-30T03:52:02;16.90;99.90
30572;DHT22;17348;50.948;10.696;2023-07-30T03:55:07;16.90;99.90
30572;DHT22;17348;50.948;10.696;2023-07-30T03:58:09;16.90;99.90
30572;DHT22;17348;50.948;10.696;2023-07-30T04:01:11;16.90;99.90
30572;DHT22;17348;50.948;10.696;2023-07-30T04:04:14;16.90;99.90
30572;DHT22;17348;50.948;10.696;2023-07-30T04:07:16;16.90;99.90
30572;DHT22;17348;50.948;10.696;2023-07-30T04:10:19;16.90;99.90
30572;DHT22;17348;50.948;10.696;2023-07-30T04:13:22;16.90;99.90
30572;DHT22;17348;50.948;10.696;2023-07-30T04:16:24;16.90;99.90
30572;DHT22;17348;50.948;10.696;2023-07-30T04:19:26;16.90;99.90
30572;DHT22;17348;50.948;10.696;2023-07-30T04:22:29;16.90;99.90
30572;DHT22;17348;50.948;10.696;2023-07-30T04:25:33;17.00;99.90
30572;DHT22;17348;50.948;10.696;2023-07-30T04:28:35;17.00;99.90
30572;DHT22;17348;50.948;10.696;2023-07-30T04:31:37;17.00;99.90
30572;DHT22;17348;50.948;10.696;2023-07-30T04:34:40;17.00;99.90
30572;DHT22;17348;50.948;10.696;2023-07-30T04:37:42;17.00;99.90
30572;DHT22;17348;50.948;10.696;2023-07-30T04:40:49;17.00;99.90
30572;DHT22;17348;50.948;10.696;2023-07-30T04:43:51;17.00;99.90
30572;DHT22;17348;50.948;10.696;2023-07-30T04:46:54;17.10;99.90
30572;DHT22;17348;50.948;10.696;2023-07-30T04:49:56;17.20;99.90
30572;DHT22;17348;50.948;10.696;2023-07-30T04:52:59;17.40;99.90
30572;DHT22;17348;50.948;10.696;2023-07-30T04:56:03;17.40;99.90
30572;DHT22;17348;50.948;10.696;2023-07-30T04:59:05;17.50;99.90
30572;DHT22;17348;50.948;10.696;2023-07-30T05:02:07;17.60;99.90
30572;DHT22;17348;50.948;10.696;2023-07-30T05:05:10;17.80;99.90
30572;DHT22;17348;50.948;10.696;2023-07-30T05:08:12;18.00;99.90
30572;DHT22;17348;50.948;10.696;2023-07-30T05:11:16;18.10;99.90
30572;DHT22;17348;50.948;10.696;2023-07-30T05:14:18;18.20;99.90
30572;DHT22;17348;50.948;10.696;2023-07-30T05:17:21;18.20;99.90
30572;DHT22;17348;50.948;10.696;2023-07-30T05:20:23;18.20;99.90
30572;DHT22;17348;50.948;10.696;2023-07-30T05:23:28;18.20;99.90
30572;DHT22;17348;50.948;10.696;2023-07-30T05:26:31;18.30;99.90
30572;DHT22;17348;50.948;10.696;2023-07-30T05:29:43;18.40;99.90
30572;DHT22;17348;50.948;10.696;2023-07-30T05:32:46;18.40;99.90
30572;DHT22;17348;50.948;10.696;2023-07-30T05:35:48;18.40;99.90
30572;DHT22;17348;50.948;10.696;2023-07-30T05:38:50;18.40;99.90
30572;DHT22;17348;50.948;10.696;2023-07-30T05:41:54;18.30;99.90
30572;DHT22;17348;50.948;10.696;2023-07-30T05:44:56;18.30;99.90
30572;DHT22;17348;50.948;10.696;2023-07-30T05:47:59;18.30;99.90
30572;DHT22;17348;50.948;10.696;2023-07-30T05:51:01;18.40;99.90
30572;DHT22;17348;50.948;10.696;2023-07-30T05:54:04;18.40;99.90
30572;DHT22;17348;50.948;10.696;2023-07-30T05:57:07;18.50;99.90
30572;DHT22;17348;50.948;10.696;2023-07-30T06:00:10;18.60;99.90
30572;DHT22;17348;50.948;10.696;2023-07-30T06:03:13;18.70;99.90
30572;DHT22;17348;50.948;10.696;2023-07-30T06:06:15;18.80;99.90
30572;DHT22;17348;50.948;10.696;2023-07-30T06:09:17;19.00;99.90
30572;DHT22;17348;50.948;10.696;2023-07-30T06:12:21;19.30;99.90
30572;DHT22;17348;50.948;10.696;2023-07-30T06:15:23;19.30;99.90
30572;DHT22;17348;50.948;10.696;2023-07-30T06:18:26;19.30;99.90
30572;DHT22;17348;50.948;10.696;2023-07-30T06:21:28;19.20;99.90
30572;DHT22;17348;50.948;10.696;2023-07-30T06:24:30;19.20;99.90
30572;DHT22;17348;50.948;10.696;2023-07-30T06:27:34;19.00;99.90
30572;DHT22;17348;50.948;10.696;2023-07-30T06:30:37;19.00;99.90
30572;DHT22;17348;50.948;10.696;2023-07-30T06:33:40;19.00;99.90
30572;DHT22;17348;50.948;10.696;2023-07-30T06:36:42;19.00;99.90
30572;DHT22;17348;50.948;10.696;2023-07-30T06:39:45;19.10;99.90
30572;DHT22;17348;50.948;10.696;2023-07-30T06:42:48;19.10;99.90
30572;DHT22;17348;50.948;10.696;2023-07-30T06:45:51;19.20;99.90
30572;DHT22;17348;50.948;10.696;2023-07-30T06:48:53;19.30;99.90
30572;DHT22;17348;50.948;10.696;2023-07-30T06:51:56;19.30;99.90
30572;DHT22;17348;50.948;10.696;2023-07-30T06:54:58;19.40;99.90
30572;DHT22;17348;50.948;10.696;2023-07-30T06:58:02;19.50;99.90
30572;DHT22;17348;50.948;10.696;2023-07-30T07:01:04;19.60;99.90
30572;DHT22;17348;50.948;10.696;2023-07-30T07:04:07;20.00;99.90
30572;DHT22;17348;50.948;10.696;2023-07-30T07:07:09;20.30;99.90
30572;DHT22;17348;50.948;10.696;2023-07-30T07:10:12;20.40;99.90
30572;DHT22;17348;50.948;10.696;2023-07-30T07:13:15;20.30;99.90
30572;DHT22;17348;50.948;10.696;2023-07-30T07:16:18;20.20;99.90
30572;DHT22;17348;50.948;10.696;2023-07-30T07:19:20;20.10;99.90
30572;DHT22;17348;50.948;10.696;2023-07-30T07:22:25;20.10;99.90
30572;DHT22;17348;50.948;10.696;2023-07-30T07:25:28;20.10;99.90
30572;DHT22;17348;50.948;10.696;2023-07-30T07:28:31;20.10;99.90
30572;DHT22;17348;50.948;10.696;2023-07-30T07:31:34;20.30;99.90
30572;DHT22;17348;50.948;10.696;2023-07-30T07:34:36;20.40;99.90
30572;DHT22;17348;50.948;10.696;2023-07-30T07:37:38;20.50;99.90
30572;DHT22;17348;50.948;10.696;2023-07-30T07:40:41;20.50;99.90
30572;DHT22;17348;50.948;10.696;2023-07-30T07:43:45;20.60;99.90
30572;DHT22;17348;50.948;10.696;2023-07-30T07:46:48;20.70;99.90
30572;DHT22;17348;50.948;10.696;2023-07-30T07:49:50;20.70;99.90
30572;DHT22;17348;50.948;10.696;2023-07-30T07:52:53;20.80;99.90
30572;DHT22;17348;50.948;10.696;2023-07-30T07:55:55;20.90;99.90
30572;DHT22;17348;50.948;10.696;2023-07-30T07:58:59;21.00;99.90
30572;DHT22;17348;50.948;10.696;2023-07-30T08:02:02;21.10;99.90
30572;DHT22;17348;50.948;10.696;2023-07-30T08:05:04;21.10;99.90
30572;DHT22;17348;50.948;10.696;2023-07-30T08:08:06;21.20;99.90
30572;DHT22;17348;50.948;10.696;2023-07-30T08:11:09;21.30;99.90
30572;DHT22;17348;50.948;10.696;2023-07-30T08:14:13;21.40;99.90
30572;DHT22;17348;50.948;10.696;2023-07-30T08:17:15;21.40;99.90
30572;DHT22;17348;50.948;10.696;2023-07-30T08:20:17;21.50;99.90
30572;DHT22;17348;50.948;10.696;2023-07-30T08:23:20;21.60;99.90
30572;DHT22;17348;50.948;10.696;2023-07-30T08:26:22;21.70;99.90
30572;DHT22;17348;50.948;10.696;2023-07-30T08:29:26;21.60;99.90
30572;DHT22;17348;50.948;10.696;2023-07-30T08:32:28;21.60;99.90
30572;DHT22;17348;50.948;10.696;2023-07-30T08:35:31;21.70;99.90
30572;DHT22;17348;50.948;10.696;2023-07-30T08:38:33;21.90;99.90
30572;DHT22;17348;50.948;10.696;2023-07-30T08:41:36;22.00;99.90
30572;DHT22;17348;50.948;10.696;2023-07-30T08:44:39;22.00;99.90
30572;DHT22;17348;50.948;10.696;2023-07-30T08:47:41;22.10;99.90
30572;DHT22;17348;50.948;10.696;2023-07-30T08:50:44;22.10;99.90
30572;DHT22;17348;50.948;10.696;2023-07-30T08:53:48;22.30;99.90
30572;DHT22;17348;50.948;10.696;2023-07-30T08:56:50;22.40;99.90
30572;DHT22;17348;50.948;10.696;2023-07-30T09:00:03;22.50;99.90
30572;DHT22;17348;50.948;10.696;2023-07-30T09:03:10;22.60;99.90
30572;DHT22;17348;50.948;10.696;2023-07-30T09:06:14;22.70;99.90
30572;DHT22;17348;50.948;10.696;2023-07-30T09:09:17;22.80;99.90
30572;DHT22;17348;50.948;10.696;2023-07-30T09:12:19;22.90;99.90
30572;DHT22;17348;50.948;10.696;2023-07-30T09:15:31;23.00;99.90
30572;DHT22;17348;50.948;10.696;2023-07-30T09:18:39;23.20;99.90
30572;DHT22;17348;50.948;10.696;2023-07-30T09:21:42;23.20;99.90
30572;DHT22;17348;50.948;10.696;2023-07-30T09:24:44;23.10;99.90
30572;DHT22;17348;50.948;10.696;2023-07-30T09:27:49;23.10;99.90
30572;DHT22;17348;50.948;10.696;2023-07-30T09:30:59;23.00;99.90
30572;DHT22;17348;50.948;10.696;2023-07-30T09:34:02;23.00;99.90
30572;DHT22;17348;50.948;10.696;2023-07-30T09:37:04;23.00;99.90
30572;DHT22;17348;50.948;10.696;2023-07-30T09:40:08;23.10;99.90
30572;DHT22;17348;50.948;10.696;2023-07-30T09:43:11;23.20;99.90
30572;DHT22;17348;50.948;10.696;2023-07-30T09:46:14;23.40;99.90
30572;DHT22;17348;50.948;10.696;2023-07-30T09:49:17;23.60;99.90
30572;DHT22;17348;50.948;10.696;2023-07-30T09:52:20;23.80;99.90
30572;DHT22;17348;50.948;10.696;2023-07-30T09:55:23;24.00;99.90
30572;DHT22;17348;50.948;10.696;2023-07-30T09:58:26;24.10;99.90
30572;DHT22;17348;50.948;10.696;2023-07-30T10:01:31;24.20;99.90
30572;DHT22;17348;50.948;10.696;2023-07-30T10:04:36;24.40;99.90
30572;DHT22;17348;50.948;10.696;2023-07-30T10:07:42;24.60;99.90
30572;DHT22;17348;50.948;10.696;2023-07-30T10:10:46;24.90;99.90
30572;DHT22;17348;50.948;10.696;2023-07-30T10:13:49;25.00;99.90
30572;DHT22;17348;50.948;10.696;2023-07-30T10:16:55;25.00;99.90
30572;DHT22;17348;50.948;10.696;2023-07-30T10:20:19;25.00;99.90
30572;DHT22;17348;50.948;10.696;2023-07-30T10:23:21;25.10;99.90
30572;DHT22;17348;50.948;10.696;2023-07-30T10:26:27;25.10;99.90
30572;DHT22;17348;50.948;10.696;2023-07-30T10:29:29;25.10;99.90
30572;DHT22;17348;50.948;10.696;2023-07-30T10:32:39;24.90;99.90
30572;DHT22;17348;50.948;10.696;2023-07-30T10:35:42;24.80;99.90
30572;DHT22;17348;50.948;10.696;2023-07-30T10:38:46;24.80;99.90
30572;DHT22;17348;50.948;10.696;2023-07-30T10:41:50;24.70;99.90
30572;DHT22;17348;50.948;10.696;2023-07-30T10:44:52;24.50;99.90
30572;DHT22;17348;50.948;10.696;2023-07-30T10:48:04;24.20;99.90
30572;DHT22;17348;50.948;10.696;2023-07-30T10:51:08;23.90;99.90
30572;DHT22;17348;50.948;10.696;2023-07-30T10:54:12;23.70;99.90
30572;DHT22;17348;50.948;10.696;2023-07-30T10:57:14;23.50;99.90
30572;DHT22;17348;50.948;10.696;2023-07-30T11:00:16;23.40;99.90
30572;DHT22;17348;50.948;10.696;2023-07-30T11:03:20;23.50;99.90
30572;DHT22;17348;50.948;10.696;2023-07-30T11:06:23;23.70;99.90
30572;DHT22;17348;50.948;10.696;2023-07-30T11:09:27;23.70;99.90
30572;DHT22;17348;50.948;10.696;2023-07-30T11:12:29;23.60;99.90
30572;DHT22;17348;50.948;10.696;2023-07-30T11:15:32;23.80;99.90
30572;DHT22;17348;50.948;10.696;2023-07-30T11:18:36;23.80;99.90
30572;DHT22;17348;50.948;10.696;2023-07-30T11:21:44;23.90;99.90
30572;DHT22;17348;50.948;10.696;2023-07-30T11:24:46;24.00;99.90
30572;DHT22;17348;50.948;10.696;2023-07-30T11:27:49;24.00;99.90
30572;DHT22;17348;50.948;10.696;2023-07-30T11:30:52;24.10;99.90
30572;DHT22;17348;50.948;10.696;2023-07-30T11:33:56;24.30;99.90
30572;DHT22;17348;50.948;10.696;2023-07-30T11:36:58;24.50;99.90
30572;DHT22;17348;50.948;10.696;2023-07-30T11:40:01;24.50;99.90
30572;DHT22;17348;50.948;10.696;2023-07-30T11:43:04;24.60;99.90
30572;DHT22;17348;50.948;10.696;2023-07-30T11:46:08;24.70;99.90
30572;DHT22;17348;50.948;10.696;2023-07-30T11:49:15;24.70;99.90
30572;DHT22;17348;50.948;10.696;2023-07-30T11:52:18;24.90;99.90
30572;DHT22;17348;50.948;10.696;2023-07-30T11:55:20;25.00;99.90
30572;DHT22;17348;50.948;10.696;2023-07-30T11:58:28;25.10;99.90
30572;DHT22;17348;50.948;10.696;2023-07-30T12:01:32;25.10;99.90
30572;DHT22;17348;50.948;10.696;2023-07-30T12:04:44;25.20;99.90
30572;DHT22;17348;50.948;10.696;2023-07-30T12:07:47;25.30;99.90
30572;DHT22;17348;50.948;10.696;2023-07-30T12:10:50;25.30;99.90
30572;DHT22;17348;50.948;10.696;2023-07-30T12:13:53;25.20;99.90
30572;DHT22;17348;50.948;10.696;2023-07-30T12:16:56;25.20;99.90
30572;DHT22;17348;50.948;10.696;2023-07-30T12:20:01;25.10;99.90
30572;DHT22;17348;50.948;10.696;2023-07-30T12:23:07;24.90;99.90
30572;DHT22;17348;50.948;10.696;2023-07-30T12:26:09;24.90;99.90
30572;DHT22;17348;50.948;10.696;2023-07-30T12:29:12;24.80;99.90
30572;DHT22;17348;50.948;10.696;2023-07-30T12:32:14;24.80;99.90
30572;DHT22;17348;50.948;10.696;2023-07-30T12:35:18;24.70;99.90
30572;DHT22;17348;50.948;10.696;2023-07-30T12:38:20;24.60;99.90
30572;DHT22;17348;50.948;10.696;2023-07-30T12:41:22;24.50;99.90
30572;DHT22;17348;50.948;10.696;2023-07-30T12:44:27;24.30;99.90
30572;DHT22;17348;50.948;10.696;2023-07-30T12:47:29;23.80;99.90
30572;DHT22;17348;50.948;10.696;2023-07-30T12:50:33;23.00;99.90
30572;DHT22;17348;50.948;10.696;2023-07-30T12:53:35;21.50;99.90
30572;DHT22;17348;50.948;10.696;2023-07-30T12:56:38;20.10;99.90
30572;DHT22;17348;50.948;10.696;2023-07-30T12:59:40;19.30;99.90
30572;DHT22;17348;50.948;10.696;2023-07-30T13:02:42;18.90;99.90
30572;DHT22;17348;50.948;10.696;2023-07-30T13:05:46;18.50;99.90
30572;DHT22;17348;50.948;10.696;2023-07-30T13:08:49;18.20;99.90
30572;DHT22;17348;50.948;10.696;2023-07-30T13:11:51;18.00;99.90
30572;DHT22;17348;50.948;10.696;2023-07-30T13:14:54;17.90;99.90
30572;DHT22;17348;50.948;10.696;2023-07-30T13:17:56;17.90;99.90
30572;DHT22;17348;50.948;10.696;2023-07-30T13:21:00;17.80;99.90
30572;DHT22;17348;50.948;10.696;2023-07-30T13:24:02;17.60;99.90
30572;DHT22;17348;50.948;10.696;2023-07-30T13:27:04;17.40;99.90
30572;DHT22;17348;50.948;10.696;2023-07-30T13:30:08;17.40;99.90
30572;DHT22;17348;50.948;10.696;2023-07-30T13:33:10;17.50;99.90
30572;DHT22;17348;50.948;10.696;2023-07-30T13:36:14;17.50;99.90
30572;DHT22;17348;50.948;10.696;2023-07-30T13:39:16;17.60;99.90
30572;DHT22;17348;50.948;10.696;2023-07-30T13:42:19;17.80;99.90
30572;DHT22;17348;50.948;10.696;2023-07-30T13:45:21;17.90;99.90
30572;DHT22;17348;50.948;10.696;2023-07-30T13:48:24;18.00;99.90
30572;DHT22;17348;50.948;10.696;2023-07-30T13:51:27;18.00;99.90
30572;DHT22;17348;50.948;10.696;2023-07-30T13:54:33;18.20;99.90
30572;DHT22;17348;50.948;10.696;2023-07-30T13:57:35;18.30;99.90
30572;DHT22;17348;50.948;10.696;2023-07-30T14:00:40;18.40;99.90
30572;DHT22;17348;50.948;10.696;2023-07-30T14:03:43;18.80;99.90
30572;DHT22;17348;50.948;10.696;2023-07-30T14:06:47;19.10;99.90
30572;DHT22;17348;50.948;10.696;2023-07-30T14:09:49;19.30;99.90
30572;DHT22;17348;50.948;10.696;2023-07-30T14:12:52;19.60;99.90
30572;DHT22;17348;50.948;10.696;2023-07-30T14:15:55;19.80;99.90
30572;DHT22;17348;50.948;10.696;2023-07-30T14:18:57;20.00;99.90
30572;DHT22;17348;50.948;10.696;2023-07-30T14:22:01;20.20;99.90
30572;DHT22;17348;50.948;10.696;2023-07-30T14:25:05;20.40;99.90
30572;DHT22;17348;50.948;10.696;2023-07-30T14:28:08;20.50;99.90
30572;DHT22;17348;50.948;10.696;2023-07-30T14:31:11;20.50;99.90
30572;DHT22;17348;50.948;10.696;2023-07-30T14:34:13;20.40;99.90
30572;DHT22;17348;50.948;10.696;2023-07-30T14:37:17;20.50;99.90
30572;DHT22;17348;50.948;10.696;2023-07-30T14:40:19;20.80;99.90
30572;DHT22;17348;50.948;10.696;2023-07-30T14:43:22;20.90;99.90
30572;DHT22;17348;50.948;10.696;2023-07-30T14:46:25;21.10;99.90
30572;DHT22;17348;50.948;10.696;2023-07-30T14:49:27;21.20;99.90
30572;DHT22;17348;50.948;10.696;2023-07-30T14:52:31;21.20;99.90
30572;DHT22;17348;50.948;10.696;2023-07-30T14:55:33;21.20;99.90
30572;DHT22;17348;50.948;10.696;2023-07-30T14:58:36;21.20;99.90
30572;DHT22;17348;50.948;10.696;2023-07-30T15:01:38;21.20;99.90
30572;DHT22;17348;50.948;10.696;2023-07-30T15:04:40;21.10;99.90
30572;DHT22;17348;50.948;10.696;2023-07-30T15:07:44;21.10;99.90
30572;DHT22;17348;50.948;10.696;2023-07-30T15:10:46;21.20;99.90
30572;DHT22;17348;50.948;10.696;2023-07-30T15:13:49;21.30;99.90
30572;DHT22;17348;50.948;10.696;2023-07-30T15:16:51;21.40;99.90
30572;DHT22;17348;50.948;10.696;2023-07-30T15:19:53;21.40;99.90
30572;DHT22;17348;50.948;10.696;2023-07-30T15:22:57;21.30;99.90
30572;DHT22;17348;50.948;10.696;2023-07-30T15:25:59;21.30;99.90
30572;DHT22;17348;50.948;10.696;2023-07-30T15:29:02;21.30;99.90
30572;DHT22;17348;50.948;10.696;2023-07-30T15:32:05;21.40;99.90
30572;DHT22;17348;50.948;10.696;2023-07-30T15:35:07;21.40;99.90
30572;DHT22;17348;50.948;10.696;2023-07-30T15:38:11;21.50;99.90
30572;DHT22;17348;50.948;10.696;2023-07-30T15:41:13;21.50;99.90
30572;DHT22;17348;50.948;10.696;2023-07-30T15:44:16;21.60;99.90
30572;DHT22;17348;50.948;10.696;2023-07-30T15:47:18;21.70;99.90
30572;DHT22;17348;50.948;10.696;2023-07-30T15:50:20;21.60;99.90
30572;DHT22;17348;50.948;10.696;2023-07-30T15:53:26;21.60;99.90
30572;DHT22;17348;50.948;10.696;2023-07-30T15:56:28;21.50;99.90
30572;DHT22;17348;50.948;10.696;2023-07-30T15:59:31;21.50;99.90
30572;DHT22;17348;50.948;10.696;2023-07-30T16:02:33;21.60;99.90
30572;DHT22;17348;50.948;10.696;2023-07-30T16:05:36;21.70;99.90
30572;DHT22;17348;50.948;10.696;2023-07-30T16:08:39;21.60;99.90
30572;DHT22;17348;50.948;10.696;2023-07-30T16:11:42;21.60;99.90
30572;DHT22;17348;50.948;10.696;2023-07-30T16:14:48;21.50;99.90
30572;DHT22;17348;50.948;10.696;2023-07-30T16:17:52;21.40;99.90
30572;DHT22;17348;50.948;10.696;2023-07-30T16:21:00;21.50;99.90
30572;DHT22;17348;50.948;10.696;2023-07-30T16:24:04;21.30;99.90
30572;DHT22;17348;50.948;10.696;2023-07-30T16:27:07;21.40;99.90
30572;DHT22;17348;50.948;10.696;2023-07-30T16:30:10;21.50;99.90
30572;DHT22;17348;50.948;10.696;2023-07-30T16:33:13;21.50;99.90
30572;DHT22;17348;50.948;10.696;2023-07-30T16:36:15;21.50;99.90
30572;DHT22;17348;50.948;10.696;2023-07-30T16:39:19;21.30;99.90
30572;DHT22;17348;50.948;10.696;2023-07-30T16:42:21;21.30;99.90
30572;DHT22;17348;50.948;10.696;2023-07-30T16:45:24;21.20;99.90
30572;DHT22;17348;50.948;10.696;2023-07-30T16:48:26;21.10;99.90
30572;DHT22;17348;50.948;10.696;2023-07-30T16:51:29;20.90;99.90
30572;DHT22;17348;50.948;10.696;2023-07-30T16:54:33;20.90;99.90
30572;DHT22;17348;50.948;10.696;2023-07-30T16:57:35;20.80;99.90
30572;DHT22;17348;50.948;10.696;2023-07-30T17:00:37;20.60;99.90
30572;DHT22;17348;50.948;10.696;2023-07-30T17:03:40;20.70;99.90
30572;DHT22;17348;50.948;10.696;2023-07-30T17:06:42;20.60;99.90
30572;DHT22;17348;50.948;10.696;2023-07-30T17:09:46;20.60;99.90
30572;DHT22;17348;50.948;10.696;2023-07-30T17:12:49;20.50;99.90
30572;DHT22;17348;50.948;10.696;2023-07-30T17:15:51;20.50;99.90
30572;DHT22;17348;50.948;10.696;2023-07-30T17:18:53;20.40;99.90
30572;DHT22;17348;50.948;10.696;2023-07-30T17:21:57;20.30;99.90
30572;DHT22;17348;50.948;10.696;2023-07-30T17:25:03;20.30;99.90
30572;DHT22;17348;50.948;10.696;2023-07-30T17:28:05;20.20;99.90
30572;DHT22;17348;50.948;10.696;2023-07-30T17:31:10;20.20;99.90
30572;DHT22;17348;50.948;10.696;2023-07-30T17:34:13;20.20;99.90
30572;DHT22;17348;50.948;10.696;2023-07-30T17:37:16;20.30;99.90
30572;DHT22;17348;50.948;10.696;2023-07-30T17:40:19;20.40;99.90
30572;DHT22;17348;50.948;10.696;2023-07-30T17:43:23;20.50;99.90
30572;DHT22;17348;50.948;10.696;2023-07-30T17:46:26;20.50;99.90
30572;DHT22;17348;50.948;10.696;2023-07-30T17:49:29;20.40;99.90
30572;DHT22;17348;50.948;10.696;2023-07-30T17:52:32;20.40;99.90
30572;DHT22;17348;50.948;10.696;2023-07-30T17:55:40;20.40;99.90
30572;DHT22;17348;50.948;10.696;2023-07-30T17:58:42;20.30;99.90
30572;DHT22;17348;50.948;10.696;2023-07-30T18:01:45;20.20;99.90
30572;DHT22;17348;50.948;10.696;2023-07-30T18:04:47;20.00;99.90
30572;DHT22;17348;50.948;10.696;2023-07-30T18:07:49;19.80;99.90
30572;DHT22;17348;50.948;10.696;2023-07-30T18:10:53;19.70;99.90
30572;DHT22;17348;50.948;10.696;2023-07-30T18:13:56;19.60;99.90
30572;DHT22;17348;50.948;10.696;2023-07-30T18:16:58;19.40;99.90
30572;DHT22;17348;50.948;10.696;2023-07-30T18:20:00;19.30;99.90
30572;DHT22;17348;50.948;10.696;2023-07-30T18:23:03;19.30;99.90
30572;DHT22;17348;50.948;10.696;2023-07-30T18:26:08;19.20;99.90
30572;DHT22;17348;50.948;10.696;2023-07-30T18:29:10;19.20;99.90
30572;DHT22;17348;50.948;10.696;2023-07-30T18:32:15;19.20;99.90
30572;DHT22;17348;50.948;10.696;2023-07-30T18:35:17;19.20;99.90
30572;DHT22;17348;50.948;10.696;2023-07-30T18:38:19;19.20;99.90
30572;DHT22;17348;50.948;10.696;2023-07-30T18:41:23;19.20;99.90
30572;DHT22;17348;50.948;10.696;2023-07-30T18:44:27;19.20;99.90
30572;DHT22;17348;50.948;10.696;2023-07-30T18:47:29;19.20;99.90
30572;DHT22;17348;50.948;10.696;2023-07-30T18:50:32;19.20;99.90
30572;DHT22;17348;50.948;10.696;2023-07-30T18:53:34;19.10;99.90
30572;DHT22;17348;50.948;10.696;2023-07-30T18:56:38;19.00;99.90